Flight Track Log - Related Links

Times and Time Zones

All times are in EDT time to prevent confusion due to time zone crossing. See the N33819 flight status page for this flight to view local times or setup timezone preferences in your user account.

Time Position Orientation Groundspeed Altitude Reporting Facility
EDT Latitude Longitude Course Direction KTS MPH feet Rate Location/Type
Mon 07:16:00 PM 35.8468 -88.8350 22° Northeast  Level FlightAware
Mon 07:16:32 PM 35.7306 -88.8789 22° Northeast 170 196 3,200  Level Memphis Center
Mon 07:17:33 PM 35.7700 -88.8681 13° North 156 180 3,700 446 Climbing Memphis Center
Mon 07:18:33 PM 35.8117 -88.8569 12° North 156 180 4,100 400 Climbing Memphis Center
Mon 07:19:33 PM 35.8575 -88.8458 11° North 156 180 4,500 400 Climbing Memphis Center
Mon 07:20:33 PM 35.9031 -88.8347 11° North 162 186 4,900 403 Climbing Memphis Center
Mon 07:21:32 PM 35.9447 -88.8236 12° North 162 186 5,300 403 Climbing Memphis Center
Mon 07:22:32 PM 35.9906 -88.8100 14° North 162 186 5,700 500 Climbing Memphis Center
Mon 07:23:32 PM 36.0361 -88.7939 16° North 162 186 6,300 550 Climbing Memphis Center
Mon 07:24:32 PM 36.0797 -88.7800 14° North 162 186 6,800 400 Climbing Memphis Center
Mon 07:25:32 PM 36.1253 -88.7664 14° North 162 186 7,100 150 Climbing Memphis Center
Mon 07:26:32 PM 36.1814 -88.7497 13° North 167 192 7,100  Level Memphis Center
Mon 07:27:32 PM 36.2272 -88.7361 13° North 167 192 7,100  Level Memphis Center
Mon 07:28:32 PM 36.2750 -88.7247 11° North 167 192 7,100  Level Memphis Center
Mon 07:29:32 PM 36.3247 -88.7136 10° North 167 192 7,100  Level Memphis Center
Mon 07:30:32 PM 36.3728 -88.7022 11° North 167 192 7,100  Level Memphis Center
Mon 07:31:32 PM 36.4206 -88.6908 11° North 167 192 7,100  Level Memphis Center
Mon 07:32:32 PM 36.4661 -88.6797 11° North 167 192 7,100  Level Memphis Center
Mon 07:33:32 PM 36.5139 -88.6683 11° North 167 192 7,100  Level Memphis Center
Mon 07:34:32 PM 36.5597 -88.6569 11° North 167 192 7,100  Level Memphis Center
Mon 07:35:32 PM 36.6075 -88.6458 11° North 167 192 7,100  Level Memphis Center
Mon 07:36:32 PM 36.6531 -88.6319 14° North 167 192 7,100  Level Memphis Center
Mon 07:37:32 PM 36.7008 -88.6206 11° North 162 186 7,100  Level Memphis Center
Mon 07:38:32 PM 36.7486 -88.6064 13° North 162 186 7,100  Level Memphis Center
Mon 07:39:32 PM 36.7942 -88.5950 11° North 162 186 7,100  Level Memphis Center
Mon 07:40:32 PM 36.8400 -88.5811 14° North 162 186 7,100  Level Memphis Center
Mon 07:41:32 PM 36.8878 -88.5672 13° North 162 186 7,100  Level Memphis Center
Mon 07:42:32 PM 36.9353 -88.5531 13° North 162 186 7,100  Level Memphis Center
Mon 07:43:32 PM 36.9831 -88.5389 13° North 162 186 7,100  Level Memphis Center
Mon 07:44:32 PM 37.0289 -88.5275 11° North 162 186 7,100  Level Memphis Center
Mon 07:45:33 PM 37.0764 -88.5108 16° North 162 186 7,100  Level Memphis Center
Mon 07:46:32 PM 37.1219 -88.4942 16° North 162 186 7,100  Level Memphis Center
Mon 07:47:32 PM 37.1719 -88.4853 North 162 186 7,100  Level Memphis Center
Mon 07:48:32 PM 37.2156 -88.4711 15° North 167 192 7,100  Level Memphis Center
Mon 07:49:32 PM 37.2631 -88.4597 11° North 162 186 7,100  Level Memphis Center
Mon 07:50:32 PM 37.3089 -88.4428 16° North 162 186 7,100  Level Memphis Center
Mon 07:51:33 PM 37.3544 -88.4286 14° North 162 186 7,100  Level Memphis Center
Mon 07:52:32 PM 37.4000 -88.4144 14° North 162 186 7,100  Level Memphis Center
Mon 07:53:32 PM 37.4456 -88.4003 14° North 162 186 7,100  Level Memphis Center
Mon 07:54:32 PM 37.4933 -88.3861 13° North 162 186 7,100  Level Memphis Center
Mon 07:55:28 PM 37.5275 -88.3742 15° North 167 192 7,100  Level Indianapolis Center
Mon 07:56:30 PM 37.5744 -88.3608 13° North 169 194 7,100  Level Indianapolis Center
Mon 07:57:32 PM 37.6278 -88.3436 14° North 167 192 7,100  Level Indianapolis Center
Mon 07:58:33 PM 37.6733 -88.3289 14° North 167 192 7,100  Level Indianapolis Center
Mon 07:59:35 PM 37.7186 -88.3150 14° North 167 192 7,100  Level Indianapolis Center
Mon 08:00:36 PM 37.7628 -88.3019 13° North 165 190 7,100  Level Indianapolis Center
Mon 08:01:38 PM 37.8086 -88.2892 12° North 166 191 7,100  Level Indianapolis Center
Mon 08:02:40 PM 37.8539 -88.2739 15° North 167 192 7,100  Level Indianapolis Center
Mon 08:03:41 PM 37.9006 -88.2636 10° North 168 193 7,100  Level Indianapolis Center
Mon 08:04:43 PM 37.9436 -88.2500 14° North 164 189 7,100  Level Indianapolis Center
Mon 08:05:44 PM 37.9889 -88.2372 13° North 164 189 7,100  Level Indianapolis Center
Mon 08:06:46 PM 38.0353 -88.2250 12° North 167 192 7,100  Level Indianapolis Center
Mon 08:07:48 PM 38.0889 -88.2100 12° North 166 191 7,100  Level Indianapolis Center
Mon 08:08:49 PM 38.1336 -88.1981 12° North 164 189 7,100  Level Indianapolis Center
Mon 08:09:51 PM 38.1783 -88.1856 12° North 164 189 7,100  Level Indianapolis Center
Mon 08:10:53 PM 38.2250 -88.1725 12° North 166 191 7,100  Level Indianapolis Center
Mon 08:11:54 PM 38.2703 -88.1600 12° North 166 191 7,100  Level Indianapolis Center
Mon 08:12:56 PM 38.3158 -88.1467 13° North 167 192 7,100  Level Indianapolis Center
Mon 08:13:57 PM 38.3619 -88.1353 11° North 167 192 7,100  Level Indianapolis Center
Mon 08:14:59 PM 38.4083 -88.1225 12° North 168 193 7,100  Level Indianapolis Center
Mon 08:16:01 PM 38.4547 -88.1108 11° North 168 193 7,100  Level Indianapolis Center
Mon 08:17:02 PM 38.5017 -88.0997 10° North 169 194 7,100  Level Indianapolis Center
Mon 08:18:04 PM 38.5567 -88.0839 13° North 169 194 7,100  Level Indianapolis Center
Mon 08:19:05 PM 38.6031 -88.0706 13° North 169 194 7,100  Level Indianapolis Center
Mon 08:20:07 PM 38.6503 -88.0572 12° North 170 196 7,100  Level Indianapolis Center
Mon 08:21:08 PM 38.6981 -88.0456 11° North 172 198 7,100  Level Indianapolis Center
Mon 08:22:10 PM 38.7456 -88.0336 11° North 172 198 7,100  Level Indianapolis Center
Mon 08:23:12 PM 38.7925 -88.0219 11° North 172 198 7,100  Level Indianapolis Center
Mon 08:24:13 PM 38.8392 -88.0108 11° North 170 196 7,100  Level Indianapolis Center
Mon 08:25:15 PM 38.8858 -87.9994 11° North 170 196 7,100  Level Indianapolis Center
Mon 08:26:16 PM 38.9325 -87.9867 12° North 169 194 7,100  Level Indianapolis Center
Mon 08:27:18 PM 38.9800 -87.9739 12° North 171 197 7,100  Level Indianapolis Center
Mon 08:28:20 PM 39.0350 -87.9589 12° North 169 194 7,100  Level Indianapolis Center
Mon 08:29:21 PM 39.0817 -87.9458 12° North 170 196 7,100  Level Indianapolis Center
Mon 08:30:23 PM 39.1275 -87.9319 13° North 169 194 7,100  Level Indianapolis Center
Mon 08:31:24 PM 39.1742 -87.9175 13° North 170 196 7,100  Level Indianapolis Center
Mon 08:32:26 PM 39.2206 -87.9031 14° North 171 197 7,100  Level Indianapolis Center
Mon 08:33:28 PM 39.2675 -87.8872 15° North 172 198 7,100  Level Indianapolis Center
Mon 08:34:29 PM 39.3131 -87.8717 15° North 170 196 7,100  Level Indianapolis Center
Mon 08:35:31 PM 39.3592 -87.8575 13° North 171 197 7,100  Level Indianapolis Center
Mon 08:36:33 PM 39.4097 -87.8397 15° North 173 199 7,100  Level Indianapolis Center
Mon 08:37:34 PM 39.4567 -87.8256 13° North 174 200 7,100  Level Indianapolis Center
Mon 08:38:36 PM 39.5031 -87.8125 12° North 172 198 7,100  Level Indianapolis Center
Mon 08:39:38 PM 39.5489 -87.7964 15° North 171 197 7,100  Level Indianapolis Center
Mon 08:40:39 PM 39.6044 -87.7778 14° North 172 198 7,100  Level Indianapolis Center
Mon 08:41:41 PM 39.6508 -87.7628 14° North 172 198 7,100  Level Indianapolis Center
Mon 08:42:43 PM 39.6972 -87.7483 13° North 171 197 7,100  Level Indianapolis Center
Mon 08:43:44 PM 39.7439 -87.7331 14° North 173 199 7,100 -195 Level Indianapolis Center
Mon 08:44:46 PM 39.7917 -87.7172 14° North 175 201 6,700 -439 Descending Indianapolis Center
Mon 08:45:47 PM 39.8417 -87.7025 13° North 182 209 6,200 -537 Descending Indianapolis Center
Mon 08:46:49 PM 39.8919 -87.6850 15° North 186 214 5,600 -871 Descending Indianapolis Center
Mon 08:47:51 PM 39.9522 -87.6689 12° North 186 214 4,400 -878 Descending Indianapolis Center
Mon 08:48:52 PM 39.9967 -87.6639 North 184 212 3,800 -590 Descending Indianapolis Center
Mon 08:50:00 PM 40.1833 -87.5833 21° North  Level FlightAware
Mon 08:57:00 PM 40.1997 -87.5955 21° North  Level Estimated
Mon 08:58:00 PM 40.1997 -87.5955 21° North  Level Estimated

Login

Don't have an account? Register now (free) for customized features, flight alerts, and more!